createdAt,value
2024-03-26T00:00:41.309Z,25.00
2024-03-26T00:03:29.318Z,24.99
2024-03-26T00:05:57.897Z,24.99
2024-03-26T00:08:27.915Z,25.01
2024-03-26T00:10:57.833Z,25.04
2024-03-26T00:13:26.922Z,25.07
2024-03-26T00:15:54.692Z,25.10
2024-03-26T00:18:22.360Z,25.12
2024-03-26T00:20:51.345Z,25.15
2024-03-26T00:23:19.010Z,25.18
2024-03-26T00:25:46.675Z,25.20
2024-03-26T00:28:16.894Z,25.24
2024-03-26T00:30:44.768Z,25.25
2024-03-26T00:33:14.778Z,25.25
2024-03-26T00:35:42.508Z,25.27
2024-03-26T00:38:10.616Z,25.29
2024-03-26T00:40:40.430Z,25.31
2024-03-26T00:43:08.196Z,25.32
2024-03-26T00:45:38.211Z,25.34
2024-03-26T00:48:06.594Z,25.36
2024-03-26T00:50:34.355Z,25.36
2024-03-26T00:53:03.885Z,25.37
2024-03-26T00:55:31.832Z,25.37
2024-03-26T00:57:59.701Z,25.37
2024-03-26T01:00:28.693Z,25.38
2024-03-26T01:02:56.343Z,25.39
2024-03-26T01:05:24.023Z,25.39
2024-03-26T01:07:53.118Z,25.40
2024-03-26T01:10:21.287Z,25.42
2024-03-26T01:12:51.712Z,25.43
2024-03-26T01:15:19.981Z,25.43
2024-03-26T01:17:50.627Z,25.44
2024-03-26T01:20:18.384Z,25.45
2024-03-26T01:22:48.399Z,25.45
2024-03-26T01:25:16.185Z,25.44
2024-03-26T01:27:46.287Z,25.45
2024-03-26T01:30:14.053Z,25.46
2024-03-26T01:32:43.952Z,25.46
2024-03-26T01:35:11.731Z,25.47
2024-03-26T01:37:39.387Z,25.48
2024-03-26T01:40:13.001Z,25.49
2024-03-26T01:42:40.753Z,25.49
2024-03-26T01:45:10.058Z,25.50
2024-03-26T01:47:39.267Z,25.50
2024-03-26T01:50:12.080Z,25.49
2024-03-26T01:52:40.735Z,25.50
2024-03-26T01:55:10.236Z,25.50
2024-03-26T01:57:38.333Z,25.50
2024-03-26T02:00:08.997Z,25.52
2024-03-26T02:02:45.877Z,25.52
2024-03-26T02:05:13.995Z,25.50
2024-03-26T02:07:45.061Z,25.47
2024-03-26T02:10:14.590Z,25.39
2024-03-26T02:12:43.972Z,25.29
2024-03-26T02:15:11.815Z,25.16
2024-03-26T02:17:41.943Z,25.04
2024-03-26T02:20:11.440Z,24.91
2024-03-26T02:22:40.430Z,24.78
2024-03-26T02:25:08.501Z,24.66
2024-03-26T02:27:36.154Z,24.54
2024-03-26T02:30:05.976Z,24.43
2024-03-26T02:32:33.736Z,24.33
2024-03-26T02:35:03.955Z,24.22
2024-03-26T02:37:31.616Z,24.11
2024-03-26T02:39:59.388Z,24.00
2024-03-26T02:42:28.176Z,23.89
2024-03-26T02:44:55.936Z,23.80
2024-03-26T02:47:26.055Z,23.71
2024-03-26T02:49:53.719Z,23.64
2024-03-26T02:52:21.527Z,23.55
2024-03-26T02:54:50.891Z,23.48
2024-03-26T02:57:18.558Z,23.39
2024-03-26T02:59:46.248Z,23.31
2024-03-26T03:02:15.308Z,23.25
2024-03-26T03:04:43.180Z,23.18
2024-03-26T03:07:10.753Z,23.10
2024-03-26T03:09:40.857Z,23.03
2024-03-26T03:12:08.823Z,22.97
2024-03-26T03:14:38.942Z,22.90
2024-03-26T03:17:06.708Z,22.84
2024-03-26T03:19:34.369Z,22.77
2024-03-26T03:22:03.297Z,22.71
2024-03-26T03:24:30.918Z,22.65
2024-03-26T03:27:01.142Z,22.58
2024-03-26T03:29:28.806Z,22.51
2024-03-26T03:31:56.673Z,22.45
2024-03-26T03:34:25.671Z,22.40
2024-03-26T03:36:53.326Z,22.36
2024-03-26T03:39:20.995Z,22.32
2024-03-26T03:41:49.940Z,22.27
2024-03-26T03:44:17.646Z,22.23
2024-03-26T03:46:45.320Z,22.20
2024-03-26T03:49:14.405Z,22.18
2024-03-26T03:51:42.065Z,22.15
2024-03-26T03:54:09.732Z,22.10
2024-03-26T03:56:38.619Z,22.07
2024-03-26T03:59:07.408Z,22.02
2024-03-26T04:01:37.323Z,21.96
2024-03-26T04:04:05.187Z,21.88
2024-03-26T04:06:33.261Z,21.80
2024-03-26T04:09:02.164Z,21.72
2024-03-26T04:11:29.968Z,21.66
2024-03-26T04:13:58.096Z,21.59
2024-03-26T04:16:26.989Z,21.52
2024-03-26T04:18:55.885Z,21.46
2024-03-26T04:21:26.549Z,21.40
2024-03-26T04:23:54.396Z,21.36
2024-03-26T04:26:24.600Z,21.31
2024-03-26T04:28:52.370Z,21.29
2024-03-26T04:31:20.135Z,21.28
2024-03-26T04:33:49.528Z,21.26
2024-03-26T04:36:17.618Z,21.25
2024-03-26T04:38:47.766Z,21.21
2024-03-26T04:41:17.449Z,21.17
2024-03-26T04:43:46.538Z,21.15
2024-03-26T04:46:27.287Z,21.14
2024-03-26T04:48:55.410Z,21.12
2024-03-26T04:51:23.262Z,21.10
2024-03-26T04:53:50.913Z,21.10
2024-03-26T04:56:20.054Z,21.10
2024-03-26T04:58:47.763Z,21.11
2024-03-26T05:01:15.544Z,21.11
2024-03-26T05:03:44.606Z,21.13
2024-03-26T05:06:12.380Z,21.13
2024-03-26T05:08:40.105Z,21.11
2024-03-26T05:11:09.174Z,21.10
2024-03-26T05:13:37.016Z,21.08
2024-03-26T05:16:06.626Z,21.09
2024-03-26T05:18:36.217Z,21.11
2024-03-26T05:21:04.706Z,21.13
2024-03-26T05:23:34.752Z,21.15
2024-03-26T05:26:02.978Z,21.15
2024-03-26T05:28:33.280Z,21.13
2024-03-26T05:31:21.149Z,21.12
2024-03-26T05:33:51.031Z,21.14
2024-03-26T05:36:19.270Z,21.17
2024-03-26T05:38:48.216Z,21.18
2024-03-26T05:41:16.307Z,21.20
2024-03-26T05:43:43.958Z,21.21
2024-03-26T05:46:12.873Z,21.21
2024-03-26T05:48:40.917Z,21.26
2024-03-26T05:51:08.610Z,21.32
2024-03-26T05:53:37.565Z,21.39
2024-03-26T05:56:08.058Z,21.47
2024-03-26T05:58:38.692Z,21.51
2024-03-26T06:01:06.868Z,21.55
2024-03-26T06:03:34.488Z,21.55
2024-03-26T06:06:02.851Z,21.54
2024-03-26T06:08:30.577Z,21.53
2024-03-26T06:10:58.487Z,21.52
2024-03-26T06:13:27.364Z,21.52
2024-03-26T06:16:06.224Z,21.53
2024-03-26T06:18:35.914Z,21.55
2024-03-26T06:21:05.678Z,21.55
2024-03-26T06:23:33.957Z,21.53
2024-03-26T06:26:01.738Z,21.52
2024-03-26T06:28:29.469Z,21.54
2024-03-26T06:30:58.418Z,21.57
2024-03-26T06:33:27.275Z,21.61
2024-03-26T06:35:57.130Z,21.63
2024-03-26T06:38:24.795Z,21.64
2024-03-26T06:40:54.616Z,21.62
2024-03-26T06:43:24.917Z,21.61
2024-03-26T06:45:52.764Z,21.64
2024-03-26T06:48:20.514Z,21.67
2024-03-26T06:50:49.152Z,21.71
2024-03-26T06:53:16.778Z,21.74
2024-03-26T06:55:46.677Z,21.75
2024-03-26T06:58:15.669Z,21.74
2024-03-26T07:00:46.004Z,21.75
2024-03-26T07:03:13.656Z,21.78
2024-03-26T07:05:41.489Z,21.83
2024-03-26T07:08:10.485Z,21.86
2024-03-26T07:10:38.595Z,21.90
2024-03-26T07:13:15.273Z,21.94
2024-03-26T07:15:45.973Z,21.96
2024-03-26T07:18:15.043Z,21.98
2024-03-26T07:20:42.985Z,22.00
2024-03-26T07:23:11.046Z,22.03
2024-03-26T07:25:39.987Z,22.07
2024-03-26T07:28:07.946Z,22.11
2024-03-26T07:30:38.190Z,22.14
2024-03-26T07:33:06.854Z,22.16
2024-03-26T07:35:37.188Z,22.17
2024-03-26T07:38:05.514Z,22.19
2024-03-26T07:40:36.999Z,22.22
2024-03-26T07:43:13.492Z,22.27
2024-03-26T07:45:50.878Z,22.31
2024-03-26T07:48:21.137Z,22.35
2024-03-26T07:50:51.886Z,22.40
2024-03-26T07:53:19.960Z,22.46
2024-03-26T07:55:52.743Z,22.48
2024-03-26T07:58:20.962Z,22.51
2024-03-26T08:00:51.886Z,22.53
2024-03-26T08:03:20.595Z,22.57
2024-03-26T08:05:54.692Z,22.60
2024-03-26T08:08:23.484Z,22.64
2024-03-26T08:10:55.633Z,22.68
2024-03-26T08:13:26.371Z,22.72
2024-03-26T08:15:55.849Z,22.74
2024-03-26T08:18:26.532Z,22.76
2024-03-26T08:20:54.885Z,22.80
2024-03-26T08:23:24.175Z,22.82
2024-03-26T08:25:56.483Z,22.85
2024-03-26T08:28:28.339Z,22.88
2024-03-26T08:30:57.459Z,22.92
2024-03-26T08:33:25.312Z,22.93
2024-03-26T08:35:56.725Z,22.96
2024-03-26T08:38:27.894Z,23.01
2024-03-26T08:40:57.312Z,23.04
2024-03-26T08:43:28.451Z,23.08
2024-03-26T08:45:57.563Z,23.13
2024-03-26T08:48:27.884Z,23.17
2024-03-26T08:51:00.055Z,23.20
2024-03-26T08:53:30.756Z,23.24
2024-03-26T08:56:08.644Z,23.26
2024-03-26T08:58:44.946Z,23.26
2024-03-26T09:01:14.873Z,23.28
2024-03-26T09:03:44.482Z,23.31
2024-03-26T09:06:13.884Z,23.33
2024-03-26T09:08:42.880Z,23.34
2024-03-26T09:11:11.463Z,23.34
2024-03-26T09:13:43.162Z,23.35
2024-03-26T09:16:12.216Z,23.36
2024-03-26T09:18:42.301Z,23.35
2024-03-26T09:21:11.533Z,23.35
2024-03-26T09:23:40.377Z,23.34
2024-03-26T09:26:12.958Z,23.35
2024-03-26T09:28:42.794Z,23.37
2024-03-26T09:34:57.399Z,23.37
2024-03-26T09:37:26.906Z,23.41
2024-03-26T09:39:55.084Z,23.43
2024-03-26T09:42:26.222Z,23.46
2024-03-26T09:45:02.168Z,23.48
2024-03-26T09:47:39.050Z,23.49
2024-03-26T09:50:08.855Z,23.52
2024-03-26T09:52:39.909Z,23.53
2024-03-26T09:55:11.311Z,23.54
2024-03-26T09:57:40.984Z,23.57
2024-03-26T10:00:10.107Z,23.58
2024-03-26T10:02:41.410Z,23.59
2024-03-26T10:05:17.935Z,23.59
2024-03-26T10:07:48.154Z,23.60
2024-03-26T10:10:17.200Z,23.59
2024-03-26T10:12:46.498Z,23.58
2024-03-26T10:15:15.080Z,23.58
2024-03-26T10:17:44.608Z,23.58
2024-03-26T10:20:13.484Z,23.60
2024-03-26T10:22:42.087Z,23.60
2024-03-26T10:25:11.638Z,23.62
2024-03-26T10:27:41.811Z,23.65
2024-03-26T10:30:10.432Z,23.67
2024-03-26T10:32:40.093Z,23.70
2024-03-26T10:35:12.260Z,23.72
2024-03-26T10:37:42.279Z,23.75
2024-03-26T10:40:20.601Z,23.77
2024-03-26T10:42:54.608Z,23.79
2024-03-26T10:45:37.794Z,23.82
2024-03-26T10:48:17.807Z,23.85
2024-03-26T10:50:47.085Z,23.88
2024-03-26T10:53:21.380Z,23.88
2024-03-26T10:55:54.357Z,23.89
2024-03-26T10:58:22.347Z,23.90
2024-03-26T11:00:53.390Z,23.91
2024-03-26T11:03:23.384Z,23.92
2024-03-26T11:05:52.817Z,23.94
2024-03-26T11:08:21.950Z,23.97
2024-03-26T11:11:03.894Z,23.99
2024-03-26T11:13:35.780Z,24.01
2024-03-26T11:16:09.515Z,24.04
2024-03-26T11:18:40.312Z,24.05
2024-03-26T11:21:10.456Z,24.06
2024-03-26T11:23:44.597Z,24.07
2024-03-26T11:26:26.605Z,24.08
2024-03-26T11:29:00.436Z,24.10
2024-03-26T11:31:30.336Z,24.09
2024-03-26T11:34:05.443Z,24.09
2024-03-26T11:36:37.932Z,24.11
2024-03-26T11:39:08.776Z,24.12
2024-03-26T11:41:38.950Z,24.14
2024-03-26T11:44:09.598Z,24.16
2024-03-26T11:46:38.859Z,24.18
2024-03-26T11:49:09.447Z,24.19
2024-03-26T11:51:41.396Z,24.21
2024-03-26T11:54:13.491Z,24.22
2024-03-26T11:56:43.586Z,24.23
2024-03-26T11:59:15.567Z,24.25
2024-03-26T12:01:45.435Z,24.27
2024-03-26T12:04:15.992Z,24.29
2024-03-26T12:06:45.501Z,24.31
2024-03-26T12:09:15.740Z,24.32
2024-03-26T12:11:44.432Z,24.33
2024-03-26T12:14:15.377Z,24.34
2024-03-26T12:16:44.518Z,24.35
2024-03-26T12:19:16.277Z,24.35
2024-03-26T12:21:46.938Z,24.35
2024-03-26T12:24:18.961Z,24.35
2024-03-26T12:26:47.647Z,24.35
2024-03-26T12:29:16.023Z,24.36
2024-03-26T12:31:44.098Z,24.37
2024-03-26T12:34:14.125Z,24.37
2024-03-26T12:36:45.666Z,24.37
2024-03-26T12:39:13.680Z,24.37
2024-03-26T12:41:41.861Z,24.38
2024-03-26T12:44:16.361Z,24.40
2024-03-26T12:46:48.109Z,24.40
2024-03-26T12:49:21.650Z,24.40
2024-03-26T12:51:58.747Z,24.41
2024-03-26T12:54:29.687Z,24.42
2024-03-26T12:57:00.451Z,24.42
2024-03-26T12:59:31.435Z,24.42
2024-03-26T13:02:02.709Z,24.43
2024-03-26T13:04:33.022Z,24.43
2024-03-26T13:07:02.313Z,24.44
2024-03-26T13:09:31.725Z,24.44
2024-03-26T13:12:02.442Z,24.44
2024-03-26T13:14:33.407Z,24.44
2024-03-26T13:17:04.979Z,24.44
2024-03-26T13:19:35.884Z,24.45
2024-03-26T13:22:08.623Z,24.44
2024-03-26T13:24:39.591Z,24.45
2024-03-26T13:27:11.858Z,24.45
2024-03-26T13:29:42.723Z,24.45
2024-03-26T13:32:11.704Z,24.45
2024-03-26T13:34:41.990Z,24.46
2024-03-26T13:37:11.582Z,24.45
2024-03-26T13:39:45.053Z,24.44
2024-03-26T13:42:15.390Z,24.43
2024-03-26T13:44:49.678Z,24.42
2024-03-26T13:47:19.234Z,24.41
2024-03-26T13:49:50.675Z,24.41
2024-03-26T13:52:20.476Z,24.40
2024-03-26T13:54:52.749Z,24.38
2024-03-26T13:57:24.936Z,24.37
2024-03-26T13:59:56.404Z,24.37
2024-03-26T14:02:25.854Z,24.36
2024-03-26T14:04:55.808Z,24.36
2024-03-26T14:07:23.571Z,24.36
2024-03-26T14:09:53.689Z,24.36
2024-03-26T14:12:21.358Z,24.36
2024-03-26T14:14:49.122Z,24.36
2024-03-26T14:17:18.021Z,24.37
2024-03-26T14:19:46.709Z,24.38
2024-03-26T14:22:17.434Z,24.41
2024-03-26T14:24:45.094Z,24.43
2024-03-26T14:27:15.136Z,24.45
2024-03-26T14:29:42.827Z,24.46
2024-03-26T14:32:14.943Z,24.47
2024-03-26T14:34:42.606Z,24.49
2024-03-26T14:37:11.599Z,24.49
2024-03-26T14:39:39.472Z,24.51
2024-03-26T14:42:07.161Z,24.53
2024-03-26T14:44:36.326Z,24.55
2024-03-26T14:47:03.989Z,24.58
2024-03-26T14:49:31.755Z,24.60
2024-03-26T14:52:01.214Z,24.63
2024-03-26T14:54:28.921Z,24.67
2024-03-26T14:56:59.146Z,24.69
2024-03-26T14:59:26.814Z,24.72
2024-03-26T15:01:57.340Z,24.72
2024-03-26T15:04:25.130Z,24.74
2024-03-26T15:06:52.880Z,24.75
2024-03-26T15:09:21.142Z,24.78
2024-03-26T15:11:49.572Z,24.78
2024-03-26T15:14:20.561Z,24.80
2024-03-26T15:16:49.344Z,24.81
2024-03-26T15:19:18.349Z,24.82
2024-03-26T15:21:46.054Z,24.83
2024-03-26T15:24:13.751Z,24.84
2024-03-26T15:27:01.827Z,24.86
2024-03-26T15:29:49.443Z,24.89
2024-03-26T15:32:20.890Z,24.92
2024-03-26T15:34:50.358Z,24.94
2024-03-26T15:37:20.215Z,24.96
2024-03-26T15:39:47.986Z,24.97
2024-03-26T15:42:19.089Z,25.00
2024-03-26T15:44:46.786Z,25.02
2024-03-26T15:47:15.778Z,25.03
2024-03-26T15:49:43.491Z,25.06
2024-03-26T15:52:12.029Z,25.07
2024-03-26T15:54:41.024Z,25.10
2024-03-26T15:57:09.633Z,25.11
2024-03-26T15:59:40.252Z,25.13
2024-03-26T16:02:09.910Z,25.15
2024-03-26T16:04:39.565Z,25.18
2024-03-26T16:07:07.525Z,25.20
2024-03-26T16:09:35.393Z,25.21
2024-03-26T16:12:05.324Z,25.22
2024-03-26T16:14:33.279Z,25.23
2024-03-26T16:17:03.660Z,25.22
2024-03-26T16:19:31.426Z,25.21
2024-03-26T16:21:59.134Z,25.20
2024-03-26T16:24:28.326Z,25.19
2024-03-26T16:26:56.099Z,25.19
2024-03-26T16:29:25.630Z,25.18
2024-03-26T16:31:54.511Z,25.17
2024-03-26T16:34:22.251Z,25.15
2024-03-26T16:36:50.019Z,25.14
2024-03-26T16:39:19.447Z,25.13
2024-03-26T16:41:47.813Z,25.11
2024-03-26T16:44:18.645Z,25.09
2024-03-26T16:46:46.408Z,25.08
2024-03-26T16:49:16.525Z,25.07
2024-03-26T16:51:44.184Z,25.06
2024-03-26T16:54:11.850Z,25.04
2024-03-26T16:56:40.837Z,25.03
2024-03-26T16:59:09.119Z,25.02
2024-03-26T17:01:36.877Z,25.00
2024-03-26T17:04:07.110Z,24.98
2024-03-26T17:06:34.823Z,24.97
2024-03-26T17:09:08.062Z,24.95
2024-03-26T17:11:38.909Z,24.93
2024-03-26T17:14:08.360Z,24.90
2024-03-26T17:16:59.298Z,24.88
2024-03-26T17:19:27.502Z,24.86
2024-03-26T17:21:55.555Z,24.85
2024-03-26T17:24:25.887Z,24.83
2024-03-26T17:26:53.773Z,24.82
2024-03-26T17:29:24.494Z,24.81
2024-03-26T17:31:52.244Z,24.80
2024-03-26T17:34:22.468Z,24.80
2024-03-26T17:36:50.350Z,24.79
2024-03-26T17:39:18.110Z,24.80
2024-03-26T17:41:47.199Z,24.81
2024-03-26T17:44:15.257Z,24.82
2024-03-26T17:46:43.252Z,24.82
2024-03-26T17:49:12.285Z,24.84
2024-03-26T17:51:40.673Z,24.84
2024-03-26T17:54:10.733Z,24.85
2024-03-26T17:56:39.156Z,24.84
2024-03-26T17:59:08.320Z,24.85
2024-03-26T18:01:36.388Z,24.84
2024-03-26T18:04:04.860Z,24.84
2024-03-26T18:06:33.857Z,24.85
2024-03-26T18:09:01.721Z,24.86
2024-03-26T18:11:29.724Z,24.87
2024-03-26T18:13:58.072Z,24.89
2024-03-26T18:16:25.943Z,24.90
2024-03-26T18:18:56.286Z,24.91
2024-03-26T18:21:26.223Z,24.93
2024-03-26T18:23:57.513Z,24.94
2024-03-26T18:26:26.152Z,24.96
2024-03-26T18:28:56.041Z,24.97
2024-03-26T18:31:25.129Z,24.98
2024-03-26T18:33:55.176Z,25.00
2024-03-26T18:36:23.836Z,25.02
2024-03-26T18:38:53.434Z,25.04
2024-03-26T18:41:22.022Z,25.05
2024-03-26T18:43:53.488Z,25.06
2024-03-26T18:46:26.799Z,25.07
2024-03-26T18:48:59.153Z,25.08
2024-03-26T18:51:28.351Z,25.08
2024-03-26T18:54:00.736Z,25.09
2024-03-26T18:56:28.592Z,25.08
2024-03-26T18:58:58.150Z,25.09
2024-03-26T19:01:27.831Z,25.09
2024-03-26T19:03:57.614Z,25.10
2024-03-26T19:06:25.376Z,25.10
2024-03-26T19:08:55.921Z,25.11
2024-03-26T19:11:24.072Z,25.12
2024-03-26T19:13:54.508Z,25.12
2024-03-26T19:16:22.164Z,25.13
2024-03-26T19:18:50.211Z,25.14
2024-03-26T19:21:20.671Z,25.14
2024-03-26T19:23:49.350Z,25.15
2024-03-26T19:26:20.425Z,25.15
2024-03-26T19:28:49.073Z,25.16
2024-03-26T19:31:18.584Z,25.17
2024-03-26T19:33:46.348Z,25.17
2024-03-26T19:36:17.356Z,25.19
2024-03-26T19:38:46.381Z,25.19
2024-03-26T19:41:15.990Z,25.21
2024-03-26T19:43:46.111Z,25.21
2024-03-26T19:46:15.015Z,25.21
2024-03-26T19:48:45.503Z,25.21
2024-03-26T19:51:14.115Z,25.22
2024-03-26T19:53:44.142Z,25.21
2024-03-26T19:56:15.893Z,25.21
2024-03-26T19:58:44.901Z,25.20
2024-03-26T20:01:13.000Z,25.21
2024-03-26T20:03:44.235Z,25.21
2024-03-26T20:06:13.077Z,25.21
2024-03-26T20:08:44.588Z,25.20
2024-03-26T20:11:16.007Z,25.21
2024-03-26T20:13:45.812Z,25.24
2024-03-26T20:16:20.948Z,25.25
2024-03-26T20:18:50.350Z,25.27
2024-03-26T20:21:18.229Z,25.29
2024-03-26T20:23:47.423Z,25.30
2024-03-26T20:26:15.387Z,25.32
2024-03-26T20:28:43.146Z,25.36
2024-03-26T20:31:14.608Z,25.40
2024-03-26T20:33:43.184Z,25.45
2024-03-26T20:36:17.719Z,25.49
2024-03-26T20:38:49.157Z,25.54
2024-03-26T20:41:16.933Z,25.59
2024-03-26T20:43:45.306Z,25.63
2024-03-26T20:46:13.379Z,25.67
2024-03-26T20:48:41.173Z,25.70
2024-03-26T20:51:12.155Z,25.74
2024-03-26T20:53:41.313Z,25.78
2024-03-26T20:56:10.378Z,25.82
2024-03-26T20:58:38.860Z,25.86
2024-03-26T21:01:16.980Z,25.90
2024-03-26T21:03:47.605Z,25.94
2024-03-26T21:06:16.511Z,25.98
2024-03-26T21:08:45.789Z,26.01
2024-03-26T21:11:14.278Z,26.04
2024-03-26T21:13:44.291Z,26.07
2024-03-26T21:16:14.106Z,26.11
2024-03-26T21:18:49.133Z,26.13
2024-03-26T21:21:21.259Z,26.15
2024-03-26T21:23:49.715Z,26.18
2024-03-26T21:26:19.260Z,26.20
2024-03-26T21:28:47.662Z,26.23
2024-03-26T21:31:18.220Z,26.25
2024-03-26T21:33:46.608Z,26.26
2024-03-26T21:36:16.598Z,26.29
2024-03-26T21:38:44.674Z,26.32
2024-03-26T21:41:16.191Z,26.35
2024-03-26T21:43:44.191Z,26.38
2024-03-26T21:46:13.186Z,26.41
2024-03-26T21:48:42.390Z,26.44
2024-03-26T21:51:12.623Z,26.46
2024-03-26T21:53:41.438Z,26.48
2024-03-26T21:56:12.441Z,26.51
2024-03-26T21:58:40.959Z,26.52
2024-03-26T22:01:11.727Z,26.54
2024-03-26T22:03:40.042Z,26.56
2024-03-26T22:06:13.220Z,26.58
2024-03-26T22:08:42.638Z,26.59
2024-03-26T22:11:14.659Z,26.61
2024-03-26T22:13:42.567Z,26.63
2024-03-26T22:16:11.799Z,26.64
2024-03-26T22:18:39.738Z,26.66
2024-03-26T22:21:07.483Z,26.69
2024-03-26T22:23:36.791Z,26.70
2024-03-26T22:26:09.499Z,26.72
2024-03-26T22:28:39.288Z,26.74
2024-03-26T22:31:07.362Z,26.76
2024-03-26T22:33:38.305Z,26.78
2024-03-26T22:36:10.227Z,26.79
2024-03-26T22:38:39.416Z,26.81
2024-03-26T22:41:08.314Z,26.83
2024-03-26T22:43:41.134Z,26.85
2024-03-26T22:46:10.729Z,26.87
2024-03-26T22:48:41.804Z,26.89
2024-03-26T22:51:10.066Z,26.91
2024-03-26T22:53:39.257Z,26.94
2024-03-26T22:56:08.001Z,26.95
2024-03-26T22:58:37.241Z,26.96
2024-03-26T23:01:08.581Z,26.98
2024-03-26T23:03:37.683Z,27.00
2024-03-26T23:06:06.181Z,27.02
2024-03-26T23:08:37.116Z,27.04
2024-03-26T23:11:05.102Z,27.05
2024-03-26T23:13:36.221Z,27.06
2024-03-26T23:16:04.699Z,27.07
2024-03-26T23:18:33.696Z,27.09
2024-03-26T23:21:01.462Z,27.10
2024-03-26T23:23:29.433Z,27.12
2024-03-26T23:25:58.730Z,27.14
2024-03-26T23:28:26.504Z,27.15
2024-03-26T23:30:54.461Z,27.16
2024-03-26T23:33:23.982Z,27.17
2024-03-26T23:35:51.851Z,27.18
2024-03-26T23:38:21.959Z,27.18
2024-03-26T23:40:50.444Z,27.20
2024-03-26T23:43:22.408Z,27.21
2024-03-26T23:45:50.274Z,27.22
2024-03-26T23:48:19.201Z,27.24
2024-03-26T23:50:47.022Z,27.25
2024-03-26T23:53:17.046Z,27.26
2024-03-26T23:55:45.339Z,27.27
2024-03-26T23:58:15.528Z,27.28
